Airfield :
LOGIN :

Register | Disclaimer

   EN    FR    IT 

 










Legend :    VFR   Marginal VFR   IFR   Intensive IFR   Very Intensive IFR
Visi :
Ceiling :
>= 8 km
>= 3000ft
5 to 8 km
1000 to 3000 ft
1500m to 5 km
500 to 1000 ft
800 to 1500m
200 to 500 ft
< 800m
< 200 ft
Symbols :   Thunderstorms  Fog  Heavy snow  Heavy precipitations  Wind > 20 kt
SIGMETs :     Misc.  Thunderstorms  Icing  Turbulence  Mountain Waves  Volcanic Ashes






- Airport Elevation : 26 ft
- IATA code : SYY


EGPO - Stornoway

CURRENT METAR :
  • 191950Z AUTO 23013KT 9999 NCD 08/06 Q0990

EXPIRED METARs :
  • 191920Z 24014KT 9999 VCSH FEW008 SCT016 BKN027 08/07 Q0990
  • 191850Z 24018KT 9999 VCSH FEW008 SCT013 BKN024 08/07 Q0990
  • 191820Z 21010KT 9999 -RA FEW008 SCT012 BKN023 09/08 Q0989
  • 191750Z 20013KT 9999 -RA FEW008 SCT012 BKN018 09/08 Q0989

TAF TAF EGPO
Valid from the 19 at 18:00 until the 20 at 03:00 UTC


191657Z 1918/2003 18022G35KT 9999 FEW006 SCT015
BECMG 1918/1920 24015G25KT
TEMPO 1918/1919 19030G45KT 6000 RA BKN009
PROB30
TEMPO 1918/1919 3000 RADZ BKN004
PROB40
TEMPO 1921/2003 25022G35KT 5000 SHRA SHGS BKN010CB
ATIS : +44 1851 707 444



MET'MAP, your aeronautical weather chart ! - Copyright ORBIFLY December 2007 - Disclaimer

ORBIFLY MET'MAP TEAM :

Programming & Development : Alexandra Zaïnal
Concept & original design : Baudouin d'Aumeries
Assistance for programming : Marc-Olivier Méhu
Technical & hardware support : Manuel Goepfert

Contact : metmap@orbifly.com




SOURCES & CREDITS :

   NOAA